createdAt,value
2023-06-22T00:00:00.363Z,101542.38
2023-06-22T00:02:26.922Z,101539.03
2023-06-22T00:04:53.447Z,101539.59
2023-06-22T00:07:20.016Z,101541.28
2023-06-22T00:09:46.764Z,101552.47
2023-06-22T00:12:13.221Z,101550.94
2023-06-22T00:14:39.689Z,101544.63
2023-06-22T00:17:06.238Z,101556.59
2023-06-22T00:19:33.601Z,101548.19
2023-06-22T00:22:01.201Z,101556.72
2023-06-22T00:24:27.758Z,101547.50
2023-06-22T00:26:54.764Z,101556.03
2023-06-22T00:29:22.166Z,101555.56
2023-06-22T00:31:49.596Z,101544.25
2023-06-22T00:34:17.011Z,101544.59
2023-06-22T00:36:43.514Z,101548.59
2023-06-22T00:39:10.832Z,101540.97
2023-06-22T00:41:37.299Z,101550.06
2023-06-22T00:44:05.134Z,101544.53
2023-06-22T00:46:31.836Z,101555.19
2023-06-22T00:49:01.020Z,101552.03
2023-06-22T00:51:28.781Z,101556.06
2023-06-22T00:53:55.570Z,101555.59
2023-06-22T00:56:25.983Z,101553.03
2023-06-22T00:58:58.222Z,101555.47
2023-06-22T01:01:25.038Z,101544.69
2023-06-22T01:03:52.763Z,101552.88
2023-06-22T01:06:28.087Z,101553.19
2023-06-22T01:09:16.205Z,101559.91
2023-06-22T01:11:47.894Z,101552.28
2023-06-22T01:14:27.173Z,101545.16
2023-06-22T01:16:58.071Z,101542.81
2023-06-22T01:19:36.805Z,101545.25
2023-06-22T01:22:06.287Z,101545.78
2023-06-22T01:25:10.576Z,101541.41
2023-06-22T01:27:57.715Z,101546.78
2023-06-22T01:30:27.509Z,101539.38
2023-06-22T01:32:56.497Z,101546.28
2023-06-22T01:35:26.024Z,101551.06
2023-06-22T01:37:53.120Z,101549.31
2023-06-22T01:40:21.061Z,101546.47
2023-06-22T01:42:49.196Z,101552.28
2023-06-22T01:45:16.684Z,101550.47
2023-06-22T01:47:43.569Z,101542.84
2023-06-22T01:50:10.640Z,101541.84
2023-06-22T01:52:37.296Z,101534.97
2023-06-22T01:55:05.695Z,101540.31
2023-06-22T01:57:32.953Z,101539.53
2023-06-22T02:00:05.779Z,101528.38
2023-06-22T02:03:16.488Z,101540.47
2023-06-22T02:06:08.778Z,101537.88
2023-06-22T02:08:47.366Z,101537.66
2023-06-22T02:11:17.605Z,101541.09
2023-06-22T02:13:44.349Z,101529.25
2023-06-22T02:16:12.835Z,101525.06
2023-06-22T02:18:47.281Z,101527.72
2023-06-22T02:21:13.782Z,101536.19
2023-06-22T02:23:40.236Z,101535.16
2023-06-22T02:26:06.694Z,101521.47
2023-06-22T02:28:33.162Z,101525.50
2023-06-22T02:30:59.698Z,101534.22
2023-06-22T02:33:26.154Z,101525.22
2023-06-22T02:35:52.650Z,101525.00
2023-06-22T02:38:20.421Z,101527.69
2023-06-22T02:40:47.590Z,101528.78
2023-06-22T02:43:14.489Z,101531.41
2023-06-22T02:45:40.930Z,101519.56
2023-06-22T02:48:07.510Z,101522.22
2023-06-22T02:50:34.656Z,101524.91
2023-06-22T02:53:01.398Z,101520.19
2023-06-22T02:55:30.763Z,101517.59
2023-06-22T02:58:00.577Z,101521.03
2023-06-22T03:00:32.029Z,101527.94
2023-06-22T03:02:59.342Z,101532.72
2023-06-22T03:05:25.954Z,101539.06
2023-06-22T03:07:53.211Z,101540.94
2023-06-22T03:10:19.687Z,101550.22
2023-06-22T03:12:46.246Z,101545.50
2023-06-22T03:15:13.702Z,101553.94
2023-06-22T03:17:42.353Z,101559.53
2023-06-22T03:20:11.353Z,101551.88
2023-06-22T03:22:39.322Z,101552.19
2023-06-22T03:25:11.396Z,101551.97
2023-06-22T03:27:43.380Z,101556.19
2023-06-22T03:30:12.576Z,101546.41
2023-06-22T03:32:40.386Z,101548.84
2023-06-22T03:35:07.589Z,101555.19
2023-06-22T03:37:36.499Z,101564.69
2023-06-22T03:40:06.257Z,101563.69
2023-06-22T03:42:35.687Z,101559.72
2023-06-22T03:45:04.527Z,101556.81
2023-06-22T03:47:31.198Z,101556.56
2023-06-22T03:49:58.998Z,101560.78
2023-06-22T03:52:26.362Z,101567.38
2023-06-22T03:54:53.047Z,101569.50
2023-06-22T03:57:19.600Z,101573.72
2023-06-22T03:59:46.155Z,101570.56
2023-06-22T04:02:13.072Z,101572.16
2023-06-22T04:04:40.417Z,101583.78
2023-06-22T04:07:07.401Z,101582.19
2023-06-22T04:09:34.152Z,101585.09
2023-06-22T04:12:00.576Z,101583.28
2023-06-22T04:14:27.037Z,101584.63
2023-06-22T04:16:53.503Z,101592.78
2023-06-22T04:19:19.979Z,101596.47
2023-06-22T04:21:46.761Z,101583.28
2023-06-22T04:24:13.522Z,101589.88
2023-06-22T04:26:42.462Z,101589.88
2023-06-22T04:29:09.771Z,101583.28
2023-06-22T04:31:39.515Z,101587.75
2023-06-22T04:34:07.613Z,101586.16
2023-06-22T04:36:39.098Z,101596.47
2023-06-22T04:39:10.908Z,101583.03
2023-06-22T04:41:44.929Z,101594.88
2023-06-22T04:44:24.692Z,101594.88
2023-06-22T04:47:03.240Z,101585.63
2023-06-22T04:49:34.348Z,101589.88
2023-06-22T04:52:02.111Z,101588.00
2023-06-22T04:54:28.584Z,101588.00
2023-06-22T04:56:57.508Z,101591.94
2023-06-22T04:59:29.036Z,101588.25
2023-06-22T05:01:56.557Z,101588.25
2023-06-22T05:04:26.829Z,101584.25
2023-06-22T05:06:53.645Z,101582.97
2023-06-22T05:09:20.211Z,101585.34
2023-06-22T05:11:47.105Z,101586.09
2023-06-22T05:14:14.390Z,101585.56
2023-06-22T05:16:43.039Z,101583.72
2023-06-22T05:19:10.133Z,101581.59
2023-06-22T05:21:36.816Z,101576.81
2023-06-22T05:24:03.959Z,101574.16
2023-06-22T05:26:32.017Z,101576.75
2023-06-22T05:28:58.779Z,101577.56
2023-06-22T05:31:25.505Z,101576.72
2023-06-22T05:33:54.681Z,101571.69
2023-06-22T05:36:22.472Z,101578.22
2023-06-22T05:38:48.917Z,101579.28
2023-06-22T05:41:15.395Z,101580.81
2023-06-22T05:43:42.076Z,101579.75
2023-06-22T05:46:08.678Z,101582.88
2023-06-22T05:48:35.144Z,101584.72
2023-06-22T05:51:01.630Z,101585.97
2023-06-22T05:53:28.311Z,101580.41
2023-06-22T05:55:54.838Z,101584.34
2023-06-22T05:58:21.405Z,101583.25
2023-06-22T06:00:48.263Z,101572.41
2023-06-22T06:03:18.084Z,101580.81
2023-06-22T06:05:45.973Z,101576.59
2023-06-22T06:08:13.214Z,101575.50
2023-06-22T06:10:40.419Z,101581.56
2023-06-22T06:13:07.174Z,101588.41
2023-06-22T06:15:34.771Z,101579.94
2023-06-22T06:18:01.382Z,101579.38
2023-06-22T06:20:31.230Z,101580.97
2023-06-22T06:22:58.267Z,101575.38
2023-06-22T06:25:24.833Z,101568.25
2023-06-22T06:27:52.611Z,101571.88
2023-06-22T06:30:19.963Z,101572.91
2023-06-22T06:32:47.836Z,101573.16
2023-06-22T06:35:17.413Z,101570.50
2023-06-22T06:37:46.190Z,101568.59
2023-06-22T06:40:14.351Z,101565.94
2023-06-22T06:42:43.190Z,101550.06
2023-06-22T06:45:10.597Z,101561.38
2023-06-22T06:47:37.383Z,101562.19
2023-06-22T06:50:05.786Z,101561.09
2023-06-22T06:52:32.289Z,101550.53
2023-06-22T06:54:58.761Z,101554.16
2023-06-22T06:57:29.745Z,101553.06
2023-06-22T06:59:57.374Z,101554.06
2023-06-22T07:02:24.975Z,101542.44
2023-06-22T07:04:51.717Z,101555.34
2023-06-22T07:07:18.173Z,101555.56
2023-06-22T07:09:44.627Z,101554.47
2023-06-22T07:12:11.173Z,101559.97
2023-06-22T07:14:37.661Z,101550.47
2023-06-22T07:17:04.476Z,101550.94
2023-06-22T07:19:32.385Z,101554.09
2023-06-22T07:21:58.820Z,101550.31
2023-06-22T07:24:25.825Z,101557.72
2023-06-22T07:26:52.668Z,101548.97
2023-06-22T07:29:20.987Z,101558.97
2023-06-22T07:31:48.424Z,101552.59
2023-06-22T07:34:14.978Z,101558.88
2023-06-22T07:36:41.526Z,101558.53
2023-06-22T07:39:08.026Z,101546.34
2023-06-22T07:41:34.481Z,101552.09
2023-06-22T07:44:01.054Z,101545.72
2023-06-22T07:46:27.750Z,101541.97
2023-06-22T07:48:56.506Z,101547.47
2023-06-22T07:51:23.407Z,101548.50
2023-06-22T07:53:49.890Z,101544.47
2023-06-22T07:56:20.071Z,101545.72
2023-06-22T07:58:47.293Z,101536.66
2023-06-22T08:01:15.122Z,101544.50
2023-06-22T08:03:41.813Z,101538.69
2023-06-22T08:06:10.202Z,101534.09
2023-06-22T08:08:37.676Z,101544.09
2023-06-22T08:11:04.249Z,101535.03
2023-06-22T08:13:30.750Z,101537.38
2023-06-22T08:15:57.216Z,101545.22
2023-06-22T08:18:23.648Z,101542.53
2023-06-22T08:20:50.813Z,101554.66
2023-06-22T08:23:17.555Z,101542.66
2023-06-22T08:25:44.103Z,101537.31
2023-06-22T08:28:10.651Z,101544.13
2023-06-22T08:30:37.141Z,101534.81
2023-06-22T08:33:03.990Z,101536.06
2023-06-22T08:35:31.557Z,101533.16
2023-06-22T08:37:59.110Z,101530.94
2023-06-22T08:40:25.646Z,101526.13
2023-06-22T08:42:52.164Z,101525.25
2023-06-22T08:45:18.828Z,101523.31
2023-06-22T08:47:45.336Z,101528.84
2023-06-22T08:50:13.593Z,101533.56
2023-06-22T08:52:44.255Z,101525.81
2023-06-22T08:55:11.785Z,101527.03
2023-06-22T08:57:40.120Z,101520.88
2023-06-22T09:00:17.075Z,101525.56
2023-06-22T09:02:45.024Z,101524.44
2023-06-22T09:05:11.939Z,101528.38
2023-06-22T09:07:38.894Z,101516.38
2023-06-22T09:10:06.440Z,101512.91
2023-06-22T09:12:33.820Z,101513.91
2023-06-22T09:15:01.667Z,101513.00
2023-06-22T09:17:28.285Z,101509.19
2023-06-22T09:19:54.954Z,101509.19
2023-06-22T09:22:21.821Z,101511.97
2023-06-22T09:24:48.357Z,101518.81
2023-06-22T09:27:14.915Z,101506.00
2023-06-22T09:29:41.392Z,101510.94
2023-06-22T09:32:08.333Z,101505.31
2023-06-22T09:34:34.909Z,101511.84
2023-06-22T09:37:04.099Z,101500.41
2023-06-22T09:39:30.566Z,101502.16
2023-06-22T09:42:01.355Z,101493.66
2023-06-22T09:44:27.826Z,101492.50
2023-06-22T09:46:54.280Z,101472.09
2023-06-22T09:49:30.836Z,101477.00
2023-06-22T09:52:07.563Z,101475.88
2023-06-22T09:54:34.125Z,101469.66
2023-06-22T09:57:00.652Z,101470.44
2023-06-22T09:59:28.102Z,101468.53
2023-06-22T10:01:54.709Z,101463.91
2023-06-22T10:04:21.289Z,101470.16
2023-06-22T10:06:48.703Z,101457.13
2023-06-22T10:09:15.158Z,101466.09
2023-06-22T10:11:41.636Z,101464.19
2023-06-22T10:14:08.079Z,101456.41
2023-06-22T10:16:36.531Z,101455.06
2023-06-22T10:19:03.180Z,101454.72
2023-06-22T10:21:30.129Z,101466.06
2023-06-22T10:23:56.883Z,101457.50
2023-06-22T10:26:23.551Z,101452.63
2023-06-22T10:28:55.373Z,101448.56
2023-06-22T10:31:28.547Z,101440.81
2023-06-22T10:33:56.225Z,101436.56
2023-06-22T10:36:23.853Z,101441.22
2023-06-22T10:38:50.916Z,101439.88
2023-06-22T10:41:18.087Z,101446.97
2023-06-22T10:43:44.572Z,101435.47
2023-06-22T10:46:11.082Z,101434.91
2023-06-22T10:48:37.560Z,101426.38
2023-06-22T10:51:04.013Z,101417.81
2023-06-22T10:53:30.473Z,101419.16
2023-06-22T10:55:57.939Z,101420.72
2023-06-22T10:58:24.668Z,101425.81
2023-06-22T11:00:51.147Z,101424.69
2023-06-22T11:03:17.742Z,101426.47
2023-06-22T11:05:44.403Z,101420.81
2023-06-22T11:08:10.877Z,101419.66
2023-06-22T11:10:37.543Z,101417.16
2023-06-22T11:13:05.280Z,101413.09
2023-06-22T11:15:31.766Z,101404.53
2023-06-22T11:17:58.317Z,101409.44
2023-06-22T11:20:24.823Z,101396.78
2023-06-22T11:22:51.270Z,101388.22
2023-06-22T11:25:17.868Z,101391.78
2023-06-22T11:27:44.315Z,101395.66
2023-06-22T11:30:11.118Z,101394.72
2023-06-22T11:32:37.722Z,101392.22
2023-06-22T11:35:04.558Z,101392.63
2023-06-22T11:37:31.033Z,101393.81
2023-06-22T11:40:05.993Z,101394.03
2023-06-22T11:42:33.442Z,101394.63
2023-06-22T11:44:59.996Z,101397.78
2023-06-22T11:47:26.576Z,101389.19
2023-06-22T11:49:53.090Z,101386.88
2023-06-22T11:52:20.397Z,101384.91
2023-06-22T11:54:46.913Z,101375.56
2023-06-22T11:57:13.734Z,101376.75
2023-06-22T11:59:40.268Z,101377.16
2023-06-22T12:02:08.527Z,101378.13
2023-06-22T12:04:35.111Z,101376.59
2023-06-22T12:07:01.742Z,101369.94
2023-06-22T12:09:28.221Z,101370.13
2023-06-22T12:11:54.819Z,101362.34
2023-06-22T12:14:21.371Z,101360.41
2023-06-22T12:16:47.847Z,101360.78
2023-06-22T12:19:14.280Z,101364.72
2023-06-22T12:21:41.836Z,101356.88
2023-06-22T12:24:08.426Z,101355.97
2023-06-22T12:26:34.851Z,101353.41
2023-06-22T12:29:01.310Z,101355.94
2023-06-22T12:31:27.775Z,101348.16
2023-06-22T12:33:54.384Z,101343.66
2023-06-22T12:36:20.863Z,101340.53
2023-06-22T12:38:47.338Z,101339.97
2023-06-22T12:41:13.856Z,101349.13
2023-06-22T12:43:41.234Z,101340.56
2023-06-22T12:46:07.717Z,101333.13
2023-06-22T12:48:34.179Z,101339.38
2023-06-22T12:51:00.655Z,101325.91
2023-06-22T12:53:28.366Z,101325.09
2023-06-22T12:55:55.255Z,101323.94
2023-06-22T12:58:21.722Z,101328.44
2023-06-22T13:00:48.196Z,101330.97
2023-06-22T13:03:14.952Z,101331.94
2023-06-22T13:05:41.537Z,101324.13
2023-06-22T13:08:12.678Z,101323.75
2023-06-22T13:10:39.650Z,101319.81
2023-06-22T13:13:06.129Z,101318.66
2023-06-22T13:15:32.935Z,101315.13
2023-06-22T13:18:00.078Z,101314.34
2023-06-22T13:20:26.704Z,101318.84
2023-06-22T13:22:54.660Z,101308.88
2023-06-22T13:25:24.088Z,101313.16
2023-06-22T13:27:50.624Z,101312.75
2023-06-22T13:30:17.185Z,101314.31
2023-06-22T13:32:44.044Z,101317.25
2023-06-22T13:35:12.036Z,101308.47
2023-06-22T13:37:38.566Z,101314.31
2023-06-22T13:40:08.953Z,101313.56
2023-06-22T13:42:35.661Z,101305.53
2023-06-22T13:45:02.923Z,101314.50
2023-06-22T13:47:31.352Z,101299.84
2023-06-22T13:49:58.864Z,101304.16
2023-06-22T13:52:25.844Z,101289.69
2023-06-22T13:54:52.466Z,101296.75
2023-06-22T13:57:18.938Z,101303.00
2023-06-22T13:59:45.440Z,101300.84
2023-06-22T14:02:11.889Z,101288.53
2023-06-22T14:04:39.318Z,101290.09
2023-06-22T14:07:05.907Z,101287.16
2023-06-22T14:09:32.342Z,101285.59
2023-06-22T14:11:58.829Z,101284.22
2023-06-22T14:14:25.465Z,101281.47
2023-06-22T14:16:51.994Z,101260.56
2023-06-22T14:19:19.500Z,101274.06
2023-06-22T14:21:46.070Z,101271.72
2023-06-22T14:24:12.559Z,101268.41
2023-06-22T14:26:39.056Z,101269.56
2023-06-22T14:29:05.501Z,101264.69
2023-06-22T14:31:32.029Z,101253.75
2023-06-22T14:33:58.600Z,101247.13
2023-06-22T14:36:25.098Z,101242.81
2023-06-22T14:38:51.594Z,101242.03
2023-06-22T14:41:18.871Z,101250.22
2023-06-22T14:43:50.091Z,101250.22
2023-06-22T14:46:18.633Z,101243.78
2023-06-22T14:48:45.931Z,101237.31
2023-06-22T14:51:16.530Z,101230.09
2023-06-22T14:53:46.249Z,101227.16
2023-06-22T14:56:13.885Z,101229.31
2023-06-22T14:58:42.166Z,101217.59
2023-06-22T15:01:09.537Z,101216.03
2023-06-22T15:03:37.051Z,101215.44
2023-06-22T15:06:04.937Z,101210.34
2023-06-22T15:08:31.486Z,101211.75
2023-06-22T15:11:02.643Z,101191.22
2023-06-22T15:13:31.279Z,101195.53
2023-06-22T15:15:57.768Z,101195.34
2023-06-22T15:18:24.279Z,101194.75
2023-06-22T15:20:50.765Z,101188.09
2023-06-22T15:23:18.401Z,101196.28
2023-06-22T15:25:45.935Z,101192.41
2023-06-22T15:28:13.010Z,101174.63
2023-06-22T15:30:39.703Z,101174.63
2023-06-22T15:33:06.278Z,101170.13
2023-06-22T15:35:32.830Z,101160.34
2023-06-22T15:38:00.490Z,101153.72
2023-06-22T15:40:27.010Z,101143.19
2023-06-22T15:42:54.176Z,101143.19
2023-06-22T15:45:20.977Z,101138.50
2023-06-22T15:47:47.615Z,101139.88
2023-06-22T15:50:14.469Z,101141.69
2023-06-22T15:52:41.933Z,101149.88
2023-06-22T15:55:10.465Z,101144.41
2023-06-22T15:57:37.029Z,101148.91
2023-06-22T16:00:05.654Z,101145.19
2023-06-22T16:02:33.872Z,101153.19
2023-06-22T16:05:02.099Z,101146.38
2023-06-22T16:07:28.592Z,101146.38
2023-06-22T16:09:55.277Z,101128.41
2023-06-22T16:12:21.784Z,101135.84
2023-06-22T16:14:48.213Z,101142.88
2023-06-22T16:17:14.704Z,101140.56
2023-06-22T16:19:41.144Z,101141.31
2023-06-22T16:22:07.665Z,101141.16
2023-06-22T16:24:34.137Z,101144.06
2023-06-22T16:27:00.612Z,101145.25
2023-06-22T16:29:27.156Z,101147.59
2023-06-22T16:31:53.621Z,101150.34
2023-06-22T16:34:20.132Z,101141.56
2023-06-22T16:36:46.583Z,101150.94
2023-06-22T16:39:13.074Z,101158.16
2023-06-22T16:41:39.513Z,101161.66
2023-06-22T16:44:07.602Z,101166.75
2023-06-22T16:46:35.525Z,101165.19
2023-06-22T16:49:02.095Z,101160.72
2023-06-22T16:51:28.526Z,101161.91
2023-06-22T16:53:59.465Z,101165.59
2023-06-22T16:56:27.562Z,101153.50
2023-06-22T16:59:06.971Z,101149.97
2023-06-22T17:01:35.618Z,101137.50
2023-06-22T17:04:10.032Z,101132.03
2023-06-22T17:06:42.591Z,101130.47
2023-06-22T17:09:13.999Z,101131.28
2023-06-22T17:11:41.287Z,101111.38
2023-06-22T17:14:07.892Z,101098.09
2023-06-22T17:16:36.245Z,101090.50
2023-06-22T17:19:06.938Z,101088.31
2023-06-22T17:21:34.230Z,101064.53
2023-06-22T17:24:02.135Z,101088.16
2023-06-22T17:26:28.653Z,101086.41
2023-06-22T17:29:01.975Z,101083.28
2023-06-22T17:31:44.631Z,101062.97
2023-06-22T17:34:16.024Z,101058.91
2023-06-22T17:36:50.873Z,101047.78
2023-06-22T17:39:22.590Z,101051.09
2023-06-22T17:41:50.456Z,101047.97
2023-06-22T17:44:24.254Z,101047.81
2023-06-22T17:46:59.234Z,101047.41
2023-06-22T17:49:30.888Z,101051.53
2023-06-22T17:51:57.905Z,101052.88
2023-06-22T17:54:31.261Z,101063.03
2023-06-22T17:57:17.580Z,101053.69
2023-06-22T17:59:51.279Z,101069.09
2023-06-22T18:02:25.230Z,101062.28
2023-06-22T18:04:51.900Z,101064.25
2023-06-22T18:07:18.427Z,101045.94
2023-06-22T18:09:46.392Z,101051.38
2023-06-22T18:12:13.803Z,101036.97
2023-06-22T18:14:42.727Z,101040.50
2023-06-22T18:17:09.812Z,101031.72
2023-06-22T18:19:38.984Z,101031.53
2023-06-22T18:22:06.394Z,101032.53
2023-06-22T18:24:34.339Z,101017.53
2023-06-22T18:27:03.449Z,101007.56
2023-06-22T18:29:31.759Z,100994.50
2023-06-22T18:31:58.345Z,100993.16
2023-06-22T18:34:26.312Z,100991.00
2023-06-22T18:36:55.854Z,100997.25
2023-06-22T18:39:23.606Z,101001.16
2023-06-22T18:41:56.207Z,100996.88
2023-06-22T18:44:27.272Z,100985.19
2023-06-22T18:46:58.575Z,100977.41
2023-06-22T18:49:26.776Z,100973.13
2023-06-22T18:51:56.266Z,100963.00
2023-06-22T18:54:36.229Z,100968.41
2023-06-22T18:57:12.697Z,100963.38
2023-06-22T18:59:43.965Z,100965.69
2023-06-22T19:02:13.781Z,100970.34
2023-06-22T19:04:43.149Z,100980.88
2023-06-22T19:07:10.417Z,100990.59
2023-06-22T19:09:37.389Z,101004.78
2023-06-22T19:12:20.885Z,101006.50
2023-06-22T19:15:16.859Z,101008.06
2023-06-22T19:17:44.146Z,101019.75
2023-06-22T19:20:12.484Z,101013.50
2023-06-22T19:22:46.879Z,101012.53
2023-06-22T19:25:20.897Z,101009.22
2023-06-22T19:27:55.687Z,101015.03
2023-06-22T19:30:22.818Z,101020.03
2023-06-22T19:32:50.094Z,101019.66
2023-06-22T19:35:19.391Z,101023.94
2023-06-22T19:37:47.091Z,101020.03
2023-06-22T19:40:15.247Z,101023.09
2023-06-22T19:42:44.957Z,101021.53
2023-06-22T19:45:17.671Z,101025.00
2023-06-22T19:47:46.587Z,101024.81
2023-06-22T19:50:13.419Z,101027.53
2023-06-22T19:52:42.052Z,101030.03
2023-06-22T19:55:10.514Z,101034.34
2023-06-22T19:57:37.950Z,101042.09
2023-06-22T20:00:13.281Z,101051.41
2023-06-22T20:02:44.622Z,101048.28
2023-06-22T20:05:13.758Z,101043.03
2023-06-22T20:07:42.998Z,101023.97
2023-06-22T20:10:15.388Z,101023.00
2023-06-22T20:12:42.139Z,101021.22
2023-06-22T20:15:28.102Z,101028.19
2023-06-22T20:18:14.110Z,101036.94
2023-06-22T20:20:46.046Z,101036.53
2023-06-22T20:23:18.105Z,101043.72
2023-06-22T20:25:46.270Z,101027.56
2023-06-22T20:28:16.736Z,101028.72
2023-06-22T20:31:07.393Z,101012.38
2023-06-22T20:33:35.084Z,101005.78
2023-06-22T20:36:02.314Z,100985.94
2023-06-22T20:38:29.521Z,100977.75
2023-06-22T20:40:56.902Z,100962.19
2023-06-22T20:43:24.813Z,100938.09
2023-06-22T20:45:57.371Z,100929.94
2023-06-22T20:48:38.015Z,100924.47
2023-06-22T20:51:05.685Z,100923.28
2023-06-22T20:53:32.820Z,100915.09
2023-06-22T20:55:59.690Z,100918.59
2023-06-22T20:58:26.149Z,100930.06
2023-06-22T21:00:52.617Z,100922.47
2023-06-22T21:03:19.223Z,100919.34
2023-06-22T21:05:45.900Z,100917.56
2023-06-22T21:08:12.395Z,100911.72
2023-06-22T21:10:38.825Z,100911.28
2023-06-22T21:13:05.295Z,100918.50
2023-06-22T21:15:31.994Z,100903.69
2023-06-22T21:17:58.655Z,100905.06
2023-06-22T21:20:25.148Z,100885.81
2023-06-22T21:22:51.625Z,100873.94
2023-06-22T21:25:18.082Z,100843.84
2023-06-22T21:27:44.610Z,100830.41
2023-06-22T21:30:12.842Z,100819.34
2023-06-22T21:32:42.849Z,100795.41
2023-06-22T21:35:13.035Z,100784.34
2023-06-22T21:37:39.955Z,100771.50
2023-06-22T21:40:07.915Z,100763.91
2023-06-22T21:42:34.485Z,100773.78
2023-06-22T21:45:01.265Z,100795.34
2023-06-22T21:47:27.835Z,100821.13
2023-06-22T21:49:54.380Z,100826.75
2023-06-22T21:52:21.208Z,100838.56
2023-06-22T21:54:48.091Z,100836.78
2023-06-22T21:57:14.661Z,100843.19
2023-06-22T21:59:41.212Z,100860.25
2023-06-22T22:02:07.904Z,100862.94
2023-06-22T22:04:34.445Z,100861.38
2023-06-22T22:07:00.903Z,100864.09
2023-06-22T22:09:27.340Z,100882.69
2023-06-22T22:11:53.808Z,100887.72
2023-06-22T22:14:20.371Z,100901.50
2023-06-22T22:16:47.209Z,100917.38
2023-06-22T22:19:15.780Z,100934.63
2023-06-22T22:21:43.585Z,100931.50
2023-06-22T22:24:10.413Z,100930.50
2023-06-22T22:26:36.920Z,100934.22
2023-06-22T22:29:06.390Z,100932.66
2023-06-22T22:31:39.569Z,100940.38
2023-06-22T22:34:07.201Z,100962.13
2023-06-22T22:36:34.282Z,100990.41
2023-06-22T22:39:00.869Z,100997.38
2023-06-22T22:41:27.991Z,101014.06
2023-06-22T22:43:59.166Z,101027.84
2023-06-22T22:46:26.851Z,101029.16
2023-06-22T22:48:53.391Z,101018.66
2023-06-22T22:51:20.044Z,101011.28
2023-06-22T22:53:46.736Z,100997.31
2023-06-22T22:56:13.357Z,100986.00
2023-06-22T22:58:39.866Z,100984.66
2023-06-22T23:01:06.446Z,100978.06
2023-06-22T23:03:33.009Z,100965.41
2023-06-22T23:05:59.975Z,100966.75
2023-06-22T23:08:27.617Z,100966.53
2023-06-22T23:10:54.504Z,100963.44
2023-06-22T23:13:21.036Z,100962.66
2023-06-22T23:15:47.508Z,100955.84
2023-06-22T23:18:14.047Z,100945.53
2023-06-22T23:20:40.496Z,100955.63
2023-06-22T23:23:06.967Z,100949.34
2023-06-22T23:25:35.392Z,100950.13
2023-06-22T23:28:02.439Z,100941.19
2023-06-22T23:30:32.412Z,100920.63
2023-06-22T23:32:58.936Z,100918.06
2023-06-22T23:35:25.660Z,100915.16
2023-06-22T23:37:53.676Z,100895.13
2023-06-22T23:40:20.608Z,100908.91
2023-06-22T23:42:48.516Z,100922.47
2023-06-22T23:45:22.807Z,100930.38
2023-06-22T23:47:50.478Z,100934.41
2023-06-22T23:50:19.071Z,100927.06
2023-06-22T23:52:52.310Z,100935.53
2023-06-22T23:55:24.221Z,100937.47
2023-06-22T23:57:58.154Z,100933.00
